Time;durP1;ratioP1;P1;durP2;ratioP2;P2;SDS_P1;SDS_P2;PMS_P1;PMS_P2;Temp;Humidity;BMP_temperature;BMP_pressure;BME280_temperature;BME280_humidity;BME280_pressure;Samples;Min_cycle;Max_cycle;Signal;HPM_P1;HPM_P2
2021/01/07 00:00:08;;;;;;;0.00;0.00;;;0.80;99.90;;;;;;4990074;28;20061;-86
2021/01/07 00:02:38;;;;;;;0.00;0.00;;;0.80;99.90;;;;;;5006161;28;20041;-87
2021/01/07 00:05:05;;;;;;;0.00;0.00;;;0.80;99.90;;;;;;4989666;28;20070;-87
2021/01/07 00:07:32;;;;;;;16.02;9.45;;;0.80;99.90;;;;;;5005889;28;20046;-87
2021/01/07 00:09:58;;;;;;;0.00;0.00;;;0.90;99.90;;;;;;4989838;28;20038;-87
2021/01/07 00:12:23;;;;;;;0.00;0.00;;;0.90;99.90;;;;;;4989570;28;20062;-87
2021/01/07 00:14:49;;;;;;;0.00;0.00;;;0.80;99.90;;;;;;4973443;28;20042;-87
2021/01/07 00:17:14;;;;;;;0.00;0.00;;;0.80;99.90;;;;;;5005037;28;20080;-88
2021/01/07 00:19:40;;;;;;;0.00;0.00;;;0.80;99.90;;;;;;5025561;28;20045;-89
2021/01/07 00:22:06;;;;;;;0.00;0.00;;;0.80;99.90;;;;;;5009191;28;20069;-87
2021/01/07 00:24:32;;;;;;;0.08;0.08;;;0.70;99.90;;;;;;5025379;28;20038;-87
2021/01/07 00:26:58;;;;;;;0.00;0.00;;;0.70;99.90;;;;;;4992778;28;20068;-87
2021/01/07 00:29:23;;;;;;;0.00;0.00;;;0.70;99.90;;;;;;5009302;22;20042;-87
2021/01/07 00:31:52;;;;;;;0.00;0.00;;;0.70;99.90;;;;;;4970043;28;20054;-87
2021/01/07 00:34:17;;;;;;;0.00;0.00;;;0.80;99.90;;;;;;4987122;28;20105;-87
2021/01/07 00:36:43;;;;;;;0.00;0.00;;;0.70;99.90;;;;;;4986181;28;20507;-87
2021/01/07 00:39:08;;;;;;;0.00;0.00;;;0.70;99.90;;;;;;4986261;28;20098;-87
2021/01/07 00:41:34;;;;;;;0.00;0.00;;;0.70;99.90;;;;;;4985797;28;20054;-87
2021/01/07 00:43:59;;;;;;;0.00;0.00;;;0.70;99.90;;;;;;4985798;28;20042;-87
2021/01/07 00:46:25;;;;;;;0.00;0.00;;;0.60;99.90;;;;;;4986085;28;20045;-87
2021/01/07 00:48:51;;;;;;;0.00;0.00;;;0.60;99.90;;;;;;4985949;28;20043;-87
2021/01/07 00:51:16;;;;;;;0.00;0.00;;;0.50;99.90;;;;;;4985863;28;20035;-87
2021/01/07 00:54:05;;;;;;;0.00;0.00;;;0.50;99.90;;;;;;5001748;28;20039;-88
2021/01/07 00:56:36;;;;;;;0.00;0.00;;;0.50;99.90;;;;;;4930283;29;20052;-88
2021/01/07 00:59:04;;;;;;;0.00;0.00;;;0.40;99.90;;;;;;4946113;29;20064;-88
2021/01/07 01:01:30;;;;;;;0.00;0.00;;;0.50;99.90;;;;;;4914457;29;20043;-88
2021/01/07 01:03:55;;;;;;;0.00;0.00;;;0.50;99.90;;;;;;4930091;29;20040;-87
2021/01/07 01:06:21;;;;;;;0.00;0.00;;;0.50;99.90;;;;;;4933246;29;20043;-88
2021/01/07 01:08:46;;;;;;;0.00;0.00;;;0.40;99.90;;;;;;4918060;29;20067;-88
2021/01/07 01:11:12;;;;;;;0.00;0.00;;;0.40;99.90;;;;;;4933730;29;20036;-87
2021/01/07 01:13:38;;;;;;;0.00;0.00;;;0.40;99.90;;;;;;4933583;29;20071;-87
2021/01/07 01:16:03;;;;;;;0.00;0.00;;;0.40;99.90;;;;;;4933561;29;20062;-87
2021/01/07 01:18:29;;;;;;;0.00;0.00;;;0.40;99.90;;;;;;4933746;29;20044;-87
2021/01/07 01:20:55;;;;;;;0.00;0.00;;;0.40;99.90;;;;;;4949729;29;20047;-87
2021/01/07 01:23:20;;;;;;;0.00;0.00;;;0.50;99.90;;;;;;4933410;29;20044;-88
2021/01/07 01:25:46;;;;;;;0.00;0.00;;;0.50;99.90;;;;;;4933462;29;20063;-88
2021/01/07 01:28:11;;;;;;;0.00;0.00;;;0.50;99.90;;;;;;4933370;29;20116;-87
2021/01/07 01:30:37;;;;;;;0.00;0.00;;;0.60;99.90;;;;;;4940712;29;20043;-87
2021/01/07 01:33:03;;;;;;;0.00;0.00;;;0.60;99.90;;;;;;4946781;28;20066;-88
2021/01/07 01:35:28;;;;;;;0.00;0.00;;;0.60;99.90;;;;;;4972641;28;20050;-88
2021/01/07 01:37:54;;;;;;;0.00;0.00;;;0.60;99.90;;;;;;5004979;28;20114;-87
2021/01/07 01:40:19;;;;;;;0.00;0.00;;;0.70;99.90;;;;;;4988755;28;20106;-88
2021/01/07 01:42:45;;;;;;;0.00;0.00;;;0.70;99.90;;;;;;5004827;28;20106;-88
2021/01/07 01:45:11;;;;;;;0.00;0.00;;;0.70;99.90;;;;;;5004734;28;20043;-87
2021/01/07 01:47:36;;;;;;;0.00;0.00;;;0.70;99.90;;;;;;5004795;28;20035;-88
2021/01/07 01:50:03;;;;;;;0.00;0.00;;;0.70;99.90;;;;;;5004872;28;20050;-87
2021/01/07 01:52:30;;;;;;;0.00;0.00;;;0.70;99.90;;;;;;5004798;28;20049;-87
2021/01/07 01:54:55;;;;;;;0.00;0.00;;;0.70;99.90;;;;;;5004463;28;20071;-88
2021/01/07 01:57:21;;;;;;;0.00;0.00;;;0.80;99.90;;;;;;5004847;28;20070;-88
2021/01/07 01:59:46;;;;;;;0.00;0.00;;;0.80;99.90;;;;;;5004904;28;20039;-87
2021/01/07 02:02:17;;;;;;;0.00;0.00;;;0.80;99.90;;;;;;4988299;28;20077;-88
2021/01/07 02:04:45;;;;;;;;;;;0.80;99.90;;;;;;4988733;28;20042;-87
2021/01/07 02:07:19;;;;;;;0.00;0.00;;;0.80;99.90;;;;;;4972403;28;19910;-87
2021/01/07 02:09:45;;;;;;;0.00;0.00;;;0.80;99.90;;;;;;5005046;28;20074;-87
2021/01/07 02:12:11;;;;;;;0.00;0.00;;;0.80;99.90;;;;;;5004716;28;20038;-87
2021/01/07 02:14:41;;;;;;;0.00;0.00;;;0.90;99.90;;;;;;4990735;28;20067;-88
2021/01/07 02:17:07;;;;;;;0.00;0.00;;;0.80;99.90;;;;;;5021319;28;20053;-88
2021/01/07 02:19:32;;;;;;;0.00;0.00;;;0.80;99.90;;;;;;4994621;28;20034;-87
2021/01/07 02:21:58;;;;;;;0.00;0.00;;;0.80;99.90;;;;;;5027140;28;20041;-87
2021/01/07 02:24:24;;;;;;;0.00;0.00;;;0.80;99.90;;;;;;5010430;28;20097;-87
2021/01/07 02:26:51;;;;;;;0.00;0.00;;;0.80;99.90;;;;;;5010920;28;20094;-87
2021/01/07 02:29:16;;;;;;;0.00;0.00;;;0.80;99.90;;;;;;5026974;28;20038;-87
2021/01/07 02:31:42;;;;;;;0.00;0.00;;;0.80;99.90;;;;;;4997702;28;20056;-88
2021/01/07 02:34:07;;;;;;;0.00;0.00;;;0.80;99.90;;;;;;5027864;28;20041;-88
2021/01/07 02:36:33;;;;;;;0.00;0.00;;;0.80;99.90;;;;;;5026768;28;20049;-88
2021/01/07 02:38:59;;;;;;;0.00;0.00;;;0.80;99.90;;;;;;5026857;28;20060;-87
2021/01/07 02:41:24;;;;;;;0.00;0.00;;;0.90;99.90;;;;;;5026911;28;20060;-87
2021/01/07 02:43:50;;;;;;;0.00;0.00;;;0.90;99.90;;;;;;5026711;28;20037;-87
2021/01/07 02:46:15;;;;;;;0.00;0.00;;;0.90;99.90;;;;;;5026634;28;20125;-88
2021/01/07 02:48:41;;;;;;;0.00;0.00;;;0.90;99.90;;;;;;5026535;28;20076;-88
2021/01/07 02:51:06;;;;;;;0.00;0.00;;;0.90;99.90;;;;;;5026636;28;20438;-88
2021/01/07 02:53:32;;;;;;;0.00;0.00;;;0.90;99.90;;;;;;5026471;28;20034;-87
2021/01/07 02:55:58;;;;;;;0.00;0.00;;;0.90;99.90;;;;;;5010267;28;20050;-87
2021/01/07 02:58:23;;;;;;;0.00;0.00;;;0.90;99.90;;;;;;5026368;28;20069;-87
2021/01/07 03:00:49;;;;;;;0.00;0.00;;;0.90;99.90;;;;;;5009873;28;20037;-88
2021/01/07 03:03:14;;;;;;;0.00;0.00;;;0.90;99.90;;;;;;5026157;28;20034;-87
2021/01/07 03:05:40;;;;;;;0.00;0.00;;;0.90;99.90;;;;;;5026239;28;20046;-88
2021/01/07 03:08:06;;;;;;;0.00;0.00;;;0.90;99.90;;;;;;5009722;28;20083;-87
2021/01/07 03:10:32;;;;;;;0.00;0.00;;;1.00;99.90;;;;;;5010039;28;20484;-87
2021/01/07 03:12:57;;;;;;;0.00;0.00;;;1.00;99.90;;;;;;5009786;28;20113;-88
2021/01/07 03:15:23;;;;;;;0.00;0.00;;;0.90;99.90;;;;;;5025647;28;20054;-87
2021/01/07 03:17:49;;;;;;;0.00;0.00;;;1.00;99.90;;;;;;5013060;28;20038;-87
2021/01/07 03:20:15;;;;;;;0.00;0.00;;;0.90;99.90;;;;;;5012921;28;20049;-87
2021/01/07 03:22:42;;;;;;;0.00;0.00;;;1.00;99.90;;;;;;5029279;28;20037;-88
2021/01/07 03:25:09;;;;;;;0.00;0.00;;;1.00;99.90;;;;;;5029085;28;20038;-87
2021/01/07 03:27:38;;;;;;;0.00;0.00;;;1.00;99.90;;;;;;5028245;28;20041;-87
2021/01/07 03:30:08;;;;;;;0.00;0.00;;;0.90;99.90;;;;;;5022572;28;20101;-88
2021/01/07 03:32:35;;;;;;;0.00;0.00;;;1.00;99.90;;;;;;5022449;28;20054;-87
2021/01/07 03:35:02;;;;;;;0.00;0.00;;;1.00;99.90;;;;;;5022140;28;20561;-87
2021/01/07 03:37:28;;;;;;;0.00;0.00;;;1.00;99.90;;;;;;5006198;28;20045;-87
2021/01/07 03:39:53;;;;;;;0.00;0.00;;;1.00;99.90;;;;;;5006253;28;20066;-87
2021/01/07 03:42:19;;;;;;;0.00;0.00;;;1.00;99.90;;;;;;5005991;28;20054;-87
2021/01/07 03:44:45;;;;;;;0.00;0.00;;;1.00;99.90;;;;;;5005715;28;20034;-88
2021/01/07 03:47:10;;;;;;;0.00;0.00;;;1.00;99.90;;;;;;5005889;28;20046;-87
2021/01/07 03:49:36;;;;;;;0.65;0.52;;;1.00;99.90;;;;;;5005830;28;20093;-86
2021/01/07 03:52:02;;;;;;;0.00;0.00;;;0.90;99.90;;;;;;5006002;28;20043;-87
2021/01/07 03:54:27;;;;;;;0.00;0.00;;;1.00;99.90;;;;;;5005373;28;20034;-87
2021/01/07 03:56:53;;;;;;;0.00;0.00;;;0.90;99.90;;;;;;5005748;28;20236;-87
2021/01/07 03:59:19;;;;;;;0.00;0.00;;;0.90;99.90;;;;;;5005641;28;20419;-87
2021/01/07 04:01:44;;;;;;;0.00;0.00;;;0.90;99.90;;;;;;5021702;28;20050;-87
2021/01/07 04:04:10;;;;;;;0.00;0.00;;;1.00;99.90;;;;;;5005634;28;20042;-87
2021/01/07 04:06:35;;;;;;;0.00;0.00;;;1.00;99.90;;;;;;5005900;28;20053;-88
2021/01/07 04:09:02;;;;;;;0.00;0.00;;;0.90;99.90;;;;;;5005476;28;20046;-87
2021/01/07 04:11:28;;;;;;;0.00;0.00;;;1.00;99.90;;;;;;5005690;28;20034;-88
2021/01/07 04:13:54;;;;;;;0.00;0.00;;;1.00;99.90;;;;;;5021737;28;20485;-89
2021/01/07 04:16:20;;;;;;;0.00;0.00;;;0.90;99.90;;;;;;5029439;28;20046;-88
2021/01/07 04:18:45;;;;;;;0.00;0.00;;;1.00;99.90;;;;;;5025485;28;20034;-87
2021/01/07 04:21:11;;;;;;;0.00;0.00;;;1.00;99.90;;;;;;5025169;28;20141;-87
2021/01/07 04:23:36;;;;;;;0.00;0.00;;;1.00;99.90;;;;;;5024813;28;20045;-87
2021/01/07 04:26:02;;;;;;;0.00;0.00;;;1.00;99.90;;;;;;5025073;28;20045;-88
2021/01/07 04:28:28;;;;;;;0.00;0.00;;;1.00;99.90;;;;;;5025024;28;20044;-87
2021/01/07 04:30:54;;;;;;;0.00;0.00;;;1.00;99.90;;;;;;5015061;28;20058;-88
2021/01/07 04:33:19;;;;;;;0.00;0.00;;;1.00;99.90;;;;;;5005351;28;20040;-88
2021/01/07 04:35:45;;;;;;;0.25;0.25;;;1.00;99.90;;;;;;5005385;28;20043;-87
2021/01/07 04:38:11;;;;;;;0.00;0.00;;;1.10;99.90;;;;;;5005220;28;20520;-87
2021/01/07 04:40:36;;;;;;;0.00;0.00;;;1.00;99.90;;;;;;5008687;28;20136;-87
2021/01/07 04:43:02;;;;;;;0.00;0.00;;;1.10;99.90;;;;;;5009201;28;20038;-87
2021/01/07 04:45:29;;;;;;;0.00;0.00;;;1.10;99.90;;;;;;5009413;28;20077;-87
2021/01/07 04:47:55;;;;;;;0.00;0.00;;;1.10;99.90;;;;;;5009231;28;20047;-87
2021/01/07 04:50:21;;;;;;;0.00;0.00;;;1.10;99.90;;;;;;5009163;28;20069;-88
2021/01/07 04:52:46;;;;;;;0.00;0.00;;;1.10;99.90;;;;;;5008982;28;20106;-88
2021/01/07 04:55:13;;;;;;;0.00;0.00;;;1.10;99.90;;;;;;5008699;28;20085;-87
2021/01/07 04:57:41;;;;;;;0.00;0.00;;;1.10;99.90;;;;;;5009258;28;20066;-88
2021/01/07 05:00:09;;;;;;;0.00;0.00;;;1.10;99.90;;;;;;5009168;28;20094;-87
2021/01/07 05:02:35;;;;;;;0.00;0.00;;;1.10;99.90;;;;;;5008978;28;20042;-87
2021/01/07 05:05:04;;;;;;;0.93;0.93;;;1.10;99.90;;;;;;5008497;28;20066;-88
2021/01/07 05:07:30;;;;;;;0.00;0.00;;;1.10;99.90;;;;;;5008934;28;20125;-87
2021/01/07 05:10:02;;;;;;;0.00;0.00;;;1.10;99.90;;;;;;5008787;28;20538;-87
2021/01/07 05:12:28;;;;;;;0.00;0.00;;;1.10;99.90;;;;;;5010062;28;20110;-87
2021/01/07 05:14:54;;;;;;;0.00;0.00;;;1.10;99.90;;;;;;5025880;28;20039;-87
2021/01/07 05:17:19;;;;;;;0.10;0.10;;;1.10;99.90;;;;;;5025994;28;20060;-92
2021/01/07 05:19:45;;;;;;;0.00;0.00;;;1.10;99.90;;;;;;5012079;28;20502;-91
2021/01/07 05:22:11;;;;;;;0.00;0.00;;;1.10;99.90;;;;;;4992294;28;20117;-87
2021/01/07 05:24:40;;;;;;;0.00;0.00;;;1.10;99.90;;;;;;4991861;28;20066;-90
2021/01/07 05:27:17;;;;;;;0.00;0.00;;;1.10;99.90;;;;;;5007929;28;20042;-86
2021/01/07 05:29:43;;;;;;;0.57;0.57;;;1.10;99.90;;;;;;5003608;28;20035;-88
2021/01/07 05:32:11;;;;;;;0.17;0.17;;;1.10;99.90;;;;;;4986642;28;20041;-92
2021/01/07 05:34:46;;;;;;;0.00;0.00;;;1.10;99.90;;;;;;5009942;28;20109;-87
2021/01/07 05:37:15;;;;;;;0.00;0.00;;;1.10;99.90;;;;;;5011588;28;20045;-91
2021/01/07 05:39:42;;;;;;;0.00;0.00;;;1.10;99.90;;;;;;4995391;28;20099;-89
2021/01/07 05:42:08;;;;;;;0.00;0.00;;;1.10;99.90;;;;;;5011617;28;20161;-85
2021/01/07 05:44:34;;;;;;;0.38;0.38;;;1.00;99.90;;;;;;5015783;28;20038;-89
2021/01/07 05:46:59;;;;;;;0.00;0.00;;;1.10;99.90;;;;;;5011393;28;20038;-91
2021/01/07 05:49:36;;;;;;;0.00;0.00;;;1.10;99.90;;;;;;5019141;28;20068;-92
2021/01/07 05:52:06;;;;;;;0.10;0.10;;;1.00;99.90;;;;;;5010259;28;20066;-95
2021/01/07 05:54:32;;;;;;;0.00;0.00;;;1.10;99.90;;;;;;5020965;22;20045;-89
2021/01/07 05:59:55;;;;;;;0.00;0.00;;;1.10;99.90;;;;;;5029299;28;20038;-86
2021/01/07 06:02:23;;;;;;;0.00;0.00;;;1.10;99.90;;;;;;5011324;28;20069;-86
2021/01/07 06:04:52;;;;;;;0.00;0.00;;;1.10;99.90;;;;;;5028917;28;20049;-88
2021/01/07 06:07:18;;;;;;;0.00;0.00;;;1.10;99.90;;;;;;5011117;28;20037;-86
2021/01/07 06:09:48;;;;;;;0.00;0.00;;;1.10;99.90;;;;;;4991629;28;20034;-84
2021/01/07 06:12:15;;;;;;;0.00;0.00;;;1.10;99.90;;;;;;5007908;28;20133;-88
2021/01/07 06:14:48;;;;;;;0.00;0.00;;;1.10;99.90;;;;;;5010426;28;20202;-90
2021/01/07 06:17:14;;;;;;;0.00;0.00;;;1.10;99.90;;;;;;4992386;28;20049;-89
2021/01/07 06:19:43;;;;;;;0.00;0.00;;;1.20;99.90;;;;;;4993707;28;20128;-87
2021/01/07 06:22:12;;;;;;;0.00;0.00;;;1.20;99.90;;;;;;4994285;28;20038;-86
2021/01/07 06:24:43;;;;;;;0.00;0.00;;;1.20;99.90;;;;;;4994743;28;20057;-86
2021/01/07 06:27:25;;;;;;;0.00;0.00;;;1.20;99.90;;;;;;5027205;28;20129;-87
2021/01/07 06:30:00;;;;;;;0.00;0.00;;;1.20;99.90;;;;;;4994884;28;20049;-85
2021/01/07 06:32:29;;;;;;;0.15;0.10;;;1.20;99.90;;;;;;4994221;28;20037;-88
2021/01/07 06:34:56;;;;;;;0.00;0.00;;;1.20;99.90;;;;;;4994072;28;20053;-86
2021/01/07 06:37:34;;;;;;;0.00;0.00;;;1.20;99.90;;;;;;5010536;28;20045;-86
2021/01/07 06:40:04;;;;;;;0.00;0.00;;;1.30;99.90;;;;;;4971335;28;20038;-86
2021/01/07 06:42:35;;;;;;;0.00;0.00;;;1.30;99.90;;;;;;4996188;28;20042;-89
2021/01/07 06:45:04;;;;;;;0.00;0.00;;;1.30;99.90;;;;;;4993335;28;20100;-85
2021/01/07 06:47:31;;;;;;;0.00;0.00;;;1.30;99.90;;;;;;5010543;28;20034;-86
2021/01/07 06:49:58;;;;;;;0.00;0.00;;;1.30;99.90;;;;;;5011883;28;20046;-85
2021/01/07 06:52:25;;;;;;;0.00;0.00;;;1.30;99.90;;;;;;5012279;28;20130;-85
2021/01/07 06:54:54;;;;;;;0.00;0.00;;;1.30;99.90;;;;;;5009757;28;20049;-89
2021/01/07 06:57:20;;;;;;;0.00;0.00;;;1.30;99.90;;;;;;4993926;28;20412;-88
2021/01/07 06:59:56;;;;;;;0.00;0.00;;;1.30;99.90;;;;;;5006930;28;20077;-87
2021/01/07 07:02:22;;;;;;;0.00;0.00;;;1.30;99.90;;;;;;5009972;28;20061;-87
2021/01/07 07:04:57;;;;;;;0.00;0.00;;;1.40;99.90;;;;;;5009907;28;20505;-89
2021/01/07 07:07:38;;;;;;;0.00;0.00;;;1.30;99.90;;;;;;5026475;28;20045;-88
2021/01/07 07:10:19;;;;;;;0.35;0.35;;;1.30;99.90;;;;;;5009807;28;20475;-89
2021/01/07 07:12:47;;;;;;;0.00;0.00;;;1.40;99.90;;;;;;5009548;28;20053;-88
2021/01/07 07:15:13;;;;;;;0.00;0.00;;;1.40;99.90;;;;;;5009959;28;20093;-89
2021/01/07 07:17:40;;;;;;;0.00;0.00;;;1.40;99.90;;;;;;5009518;28;20042;-87
2021/01/07 07:20:09;;;;;;;0.00;0.00;;;1.40;99.90;;;;;;5009668;28;20105;-89
2021/01/07 07:22:42;;;;;;;0.00;0.00;;;1.40;99.90;;;;;;5009448;28;20061;-89
2021/01/07 07:25:08;;;;;;;0.00;0.00;;;1.40;99.90;;;;;;5009635;28;20058;-88
2021/01/07 07:27:55;;;;;;;0.00;0.00;;;1.40;99.90;;;;;;5009525;28;20042;-87
2021/01/07 07:30:28;;;;;;;0.00;0.00;;;1.40;99.90;;;;;;5004229;28;20042;-89
2021/01/07 07:32:55;;;;;;;0.00;0.00;;;1.40;99.90;;;;;;4989963;28;20042;-88
2021/01/07 07:35:26;;;;;;;0.00;0.00;;;1.40;99.90;;;;;;4989919;28;20070;-89
2021/01/07 07:37:53;;;;;;;0.00;0.00;;;1.40;99.90;;;;;;4989935;28;20061;-89
2021/01/07 07:40:32;;;;;;;0.00;0.00;;;1.40;99.90;;;;;;4989883;28;20039;-90
2021/01/07 07:42:59;;;;;;;0.00;0.00;;;1.40;99.90;;;;;;4989667;28;20042;-87
2021/01/07 07:45:29;;;;;;;0.20;0.20;;;1.40;99.90;;;;;;4989668;28;20043;-88
2021/01/07 07:47:55;;;;;;;0.70;0.70;;;1.40;99.90;;;;;;5006025;28;20061;-88
2021/01/07 07:50:28;;;;;;;0.13;0.13;;;1.40;99.90;;;;;;5005784;28;20038;-88
2021/01/07 07:53:11;;;;;;;0.00;0.00;;;1.50;99.90;;;;;;5006943;28;20045;-87
2021/01/07 07:55:39;;;;;;;0.00;0.00;;;1.40;99.90;;;;;;5005787;28;20050;-87
2021/01/07 07:58:09;;;;;;;0.00;0.00;;;1.50;99.90;;;;;;4992027;28;20101;-87
2021/01/07 08:00:35;;;;;;;0.00;0.00;;;1.50;99.90;;;;;;5025509;28;20073;-87
2021/01/07 08:03:00;;;;;;;0.00;0.00;;;1.50;99.90;;;;;;5008880;28;20049;-88
2021/01/07 08:05:31;;;;;;;0.00;0.00;;;1.50;99.90;;;;;;5025230;28;20042;-87
2021/01/07 08:07:58;;;;;;;0.20;0.20;;;1.50;99.90;;;;;;5008847;28;20034;-87
2021/01/07 08:10:25;;;;;;;1.85;0.00;;;1.50;99.90;;;;;;5008959;28;20041;-87
2021/01/07 08:12:54;;;;;;;0.00;0.00;;;1.50;99.90;;;;;;5008688;28;20597;-88
2021/01/07 08:15:29;;;;;;;0.63;0.63;;;1.50;99.90;;;;;;5008412;28;20057;-87
2021/01/07 08:17:56;;;;;;;0.00;0.00;;;1.50;99.90;;;;;;5005666;28;20042;-88
2021/01/07 08:20:23;;;;;;;0.00;0.00;;;1.50;99.90;;;;;;5021875;28;20085;-87
2021/01/07 08:22:50;;;;;;;0.00;0.00;;;1.50;99.90;;;;;;5021676;28;20069;-87
2021/01/07 08:25:32;;;;;;;0.00;0.00;;;1.60;99.90;;;;;;5021758;28;20042;-88
2021/01/07 08:28:07;;;;;;;0.00;0.00;;;1.60;99.90;;;;;;5012930;28;20057;-89
2021/01/07 08:30:43;;;;;;;0.00;0.00;;;1.60;99.90;;;;;;5028324;28;20120;-90
2021/01/07 08:33:12;;;;;;;0.00;0.00;;;1.60;99.90;;;;;;5008317;28;20133;-88
2021/01/07 08:35:38;;;;;;;0.00;0.00;;;1.60;99.90;;;;;;5025699;28;20070;-87
2021/01/07 08:38:04;;;;;;;0.00;0.00;;;1.60;99.90;;;;;;5024559;28;20045;-87
2021/01/07 08:40:31;;;;;;;0.00;0.00;;;1.70;99.90;;;;;;5024396;28;20042;-86
2021/01/07 08:43:09;;;;;;;0.00;0.00;;;1.70;99.90;;;;;;5024423;28;20040;-88
2021/01/07 08:45:34;;;;;;;0.00;0.00;;;1.80;99.90;;;;;;5025380;28;20445;-86
2021/01/07 08:48:07;;;;;;;0.00;0.00;;;1.80;99.90;;;;;;5025761;28;20042;-87
2021/01/07 08:50:34;;;;;;;0.00;0.00;;;1.70;99.90;;;;;;5025295;28;20046;-89
2021/01/07 08:52:59;;;;;;;0.00;0.00;;;1.80;99.90;;;;;;5008200;28;20045;-87
2021/01/07 08:55:48;;;;;;;0.00;0.00;;;1.80;99.90;;;;;;5024279;28;20053;-87
2021/01/07 08:58:24;;;;;;;0.00;0.00;;;1.80;99.90;;;;;;5026146;28;20105;-87
2021/01/07 09:00:54;;;;;;;0.00;0.00;;;1.80;99.90;;;;;;5027823;28;20042;-88
2021/01/07 09:03:20;;;;;;;0.00;0.00;;;1.90;99.90;;;;;;4991526;28;20045;-87
2021/01/07 09:05:46;;;;;;;0.00;0.00;;;1.80;99.90;;;;;;4991609;28;20490;-87
2021/01/07 09:08:14;;;;;;;1.30;0.98;;;1.80;99.90;;;;;;5007782;28;20525;-88
2021/01/07 09:10:41;;;;;;;0.00;0.00;;;1.90;99.90;;;;;;5007789;28;20045;-87
2021/01/07 09:13:17;;;;;;;0.00;0.00;;;1.90;99.90;;;;;;4991404;28;20048;-87
2021/01/07 09:15:43;;;;;;;0.00;0.00;;;1.90;99.90;;;;;;4991273;28;20057;-88
2021/01/07 09:18:09;;;;;;;0.00;0.00;;;1.90;99.90;;;;;;4975390;28;20046;-89
2021/01/07 09:20:35;;;;;;;0.00;0.00;;;1.90;99.90;;;;;;4991500;28;20038;-87
2021/01/07 09:23:05;;;;;;;0.00;0.00;;;1.90;99.90;;;;;;4991376;28;20049;-87
2021/01/07 09:25:31;;;;;;;0.70;0.40;;;1.90;99.90;;;;;;4991405;28;20049;-88
2021/01/07 09:27:57;;;;;;;0.00;0.00;;;1.90;99.90;;;;;;4995052;28;20034;-87
2021/01/07 09:30:25;;;;;;;0.00;0.00;;;2.00;99.90;;;;;;4995096;28;20049;-86
2021/01/07 09:32:51;;;;;;;0.00;0.00;;;2.00;99.90;;;;;;4994669;28;20096;-87
2021/01/07 09:35:17;;;;;;;0.00;0.00;;;2.00;99.90;;;;;;4994983;28;20050;-87
2021/01/07 09:37:43;;;;;;;0.43;0.43;;;1.90;99.90;;;;;;4994940;28;20084;-86
2021/01/07 09:40:09;;;;;;;0.00;0.00;;;2.00;99.90;;;;;;4994692;28;20041;-87
2021/01/07 09:42:35;;;;;;;0.15;0.15;;;2.00;99.90;;;;;;4994665;28;20064;-86
2021/01/07 09:45:02;;;;;;;0.00;0.00;;;2.00;99.90;;;;;;5011059;28;20046;-86
2021/01/07 09:47:28;;;;;;;0.00;0.00;;;2.00;99.90;;;;;;4994660;28;20042;-87
2021/01/07 09:49:56;;;;;;;0.00;0.00;;;2.00;99.90;;;;;;5011203;28;20048;-87
2021/01/07 09:52:22;;;;;;;0.00;0.00;;;2.10;99.90;;;;;;4994513;28;20038;-86
2021/01/07 09:54:47;;;;;;;0.00;0.00;;;2.10;99.90;;;;;;4994195;28;20149;-88
2021/01/07 09:57:13;;;;;;;0.00;0.00;;;2.20;99.90;;;;;;4994736;28;20041;-87
2021/01/07 09:59:40;;;;;;;0.17;0.10;;;2.20;99.90;;;;;;4998502;28;20100;-89
2021/01/07 10:02:10;;;;;;;0.00;0.00;;;2.20;99.90;;;;;;5026896;28;20129;-87
2021/01/07 10:04:44;;;;;;;0.15;0.15;;;2.20;99.90;;;;;;5026701;28;20041;-88
2021/01/07 10:07:11;;;;;;;0.00;0.00;;;2.30;99.90;;;;;;5026957;28;20048;-88
2021/01/07 10:09:37;;;;;;;0.85;0.85;;;2.20;99.90;;;;;;5026724;28;20547;-88
2021/01/07 10:12:03;;;;;;;0.00;0.00;;;2.30;99.90;;;;;;5027009;28;20105;-86
2021/01/07 10:14:30;;;;;;;0.00;0.00;;;2.30;99.90;;;;;;5026659;28;20033;-86
2021/01/07 10:17:01;;;;;;;2.92;0.43;;;2.30;99.90;;;;;;5026609;28;20053;-86
2021/01/07 10:19:29;;;;;;;;;;;2.20;99.90;;;;;;5027182;28;20044;-87
2021/01/07 10:22:05;;;;;;;0.00;0.00;;;2.30;99.90;;;;;;5010207;28;19910;-87
2021/01/07 10:24:33;;;;;;;0.00;0.00;;;2.30;99.90;;;;;;5026279;28;20564;-86
2021/01/07 10:27:02;;;;;;;0.00;0.00;;;2.30;99.90;;;;;;5010273;28;20045;-87
2021/01/07 10:29:28;;;;;;;0.00;0.00;;;2.40;99.90;;;;;;5026545;28;20034;-86
2021/01/07 10:31:58;;;;;;;0.00;0.00;;;2.40;99.90;;;;;;5026378;28;20057;-87
2021/01/07 10:34:25;;;;;;;0.00;0.00;;;2.50;99.90;;;;;;5026018;28;20101;-87
2021/01/07 10:36:51;;;;;;;0.00;0.00;;;2.50;99.90;;;;;;5026124;28;20058;-87
2021/01/07 10:39:21;;;;;;;0.00;0.00;;;2.50;99.90;;;;;;5026389;28;20041;-87
2021/01/07 10:41:50;;;;;;;0.00;0.00;;;2.50;99.90;;;;;;5027212;28;20485;-89
2021/01/07 10:44:18;;;;;;;0.00;0.00;;;2.50;99.90;;;;;;5025914;28;20042;-87
2021/01/07 10:46:45;;;;;;;0.00;0.00;;;2.50;99.90;;;;;;5009841;28;20285;-87
2021/01/07 10:49:13;;;;;;;0.00;0.00;;;2.60;99.90;;;;;;5025877;28;20046;-86
2021/01/07 10:52:17;;;;;;;0.20;0.10;;;2.50;99.90;;;;;;5025873;28;20041;-86
2021/01/07 10:55:16;;;;;;;0.00;0.00;;;2.50;99.90;;;;;;5019640;28;20050;-86
2021/01/07 10:58:19;;;;;;;0.00;0.00;;;2.60;99.90;;;;;;5009733;28;20065;-89
2021/01/07 11:00:53;;;;;;;0.00;0.00;;;2.60;99.90;;;;;;5009393;28;20057;-87
2021/01/07 11:03:25;;;;;;;0.00;0.00;;;2.60;99.90;;;;;;5009557;28;20049;-87
2021/01/07 11:06:00;;;;;;;0.00;0.00;;;2.70;99.90;;;;;;5009394;28;20113;-87
2021/01/07 11:08:28;;;;;;;0.00;0.00;;;2.70;99.90;;;;;;5009542;28;20046;-86
2021/01/07 11:10:58;;;;;;;0.00;0.00;;;2.80;99.90;;;;;;5009368;28;20038;-85
2021/01/07 11:13:31;;;;;;;0.00;0.00;;;2.80;99.90;;;;;;5025753;28;20049;-87
2021/01/07 11:15:57;;;;;;;0.00;0.00;;;2.80;99.90;;;;;;5025709;28;20081;-87
2021/01/07 11:18:33;;;;;;;0.28;0.00;;;2.80;99.90;;;;;;5025858;28;20038;-86
2021/01/07 11:21:13;;;;;;;0.00;0.00;;;2.80;99.90;;;;;;5025521;28;20102;-88
2021/01/07 11:23:39;;;;;;;0.00;0.00;;;2.80;99.90;;;;;;5009290;28;20037;-86
2021/01/07 11:26:05;;;;;;;0.00;0.00;;;2.80;99.90;;;;;;5025420;28;20041;-86
2021/01/07 11:28:31;;;;;;;0.00;0.00;;;2.90;99.90;;;;;;5025293;28;20140;-86
2021/01/07 11:30:57;;;;;;;0.00;0.00;;;2.90;99.90;;;;;;5025419;28;20050;-88
2021/01/07 11:33:23;;;;;;;0.00;0.00;;;3.00;99.90;;;;;;5025142;28;20072;-86
2021/01/07 11:35:48;;;;;;;0.00;0.00;;;2.90;99.90;;;;;;5008716;28;20049;-86
2021/01/07 11:38:23;;;;;;;0.10;0.10;;;3.00;99.90;;;;;;5025250;28;20049;-86
2021/01/07 11:41:01;;;;;;;0.00;0.00;;;3.00;99.90;;;;;;5025207;28;20045;-86
2021/01/07 11:43:56;;;;;;;0.00;0.00;;;3.00;99.90;;;;;;5008927;28;20042;-86
2021/01/07 11:46:22;;;;;;;0.00;0.00;;;3.10;99.90;;;;;;5025304;28;20046;-86
2021/01/07 11:49:01;;;;;;;0.00;0.00;;;3.00;99.90;;;;;;5008076;28;20038;-86
2021/01/07 11:51:27;;;;;;;0.00;0.00;;;3.00;99.90;;;;;;5025028;28;20049;-86
2021/01/07 11:53:57;;;;;;;0.00;0.00;;;3.00;99.90;;;;;;5024767;28;20042;-85
2021/01/07 11:56:23;;;;;;;0.00;0.00;;;2.90;99.90;;;;;;5025016;28;20049;-86
2021/01/07 11:58:51;;;;;;;0.47;0.00;;;3.00;99.90;;;;;;5024950;28;20042;-86
2021/01/07 12:01:18;;;;;;;0.00;0.00;;;3.00;99.90;;;;;;5024536;28;20056;-88
2021/01/07 12:03:45;;;;;;;0.00;0.00;;;2.90;99.90;;;;;;5024698;28;20045;-86
2021/01/07 12:06:15;;;;;;;0.00;0.00;;;3.00;99.90;;;;;;5024405;28;20046;-87
2021/01/07 12:08:58;;;;;;;0.00;0.00;;;2.90;99.90;;;;;;5025518;28;20042;-90
2021/01/07 12:11:35;;;;;;;0.00;0.00;;;2.90;99.90;;;;;;5025104;28;20037;-86
2021/01/07 12:14:12;;;;;;;0.00;0.00;;;3.00;99.90;;;;;;5024322;28;20441;-86
2021/01/07 12:17:00;;;;;;;0.00;0.00;;;3.00;99.90;;;;;;5024559;28;20100;-88
2021/01/07 12:19:28;;;;;;;0.00;0.00;;;3.00;99.90;;;;;;5024564;28;20060;-86
2021/01/07 12:21:54;;;;;;;0.00;0.00;;;3.00;99.90;;;;;;5005659;28;20037;-86
2021/01/07 12:24:21;;;;;;;0.00;0.00;;;3.00;99.90;;;;;;5024226;28;20033;-85
2021/01/07 12:26:48;;;;;;;0.00;0.00;;;3.00;99.90;;;;;;5024400;28;20037;-86
2021/01/07 12:29:19;;;;;;;0.00;0.00;;;3.10;99.90;;;;;;5024364;28;20034;-88
2021/01/07 12:31:47;;;;;;;;;;;3.10;99.90;;;;;;5024799;28;20061;-87
2021/01/07 12:34:51;;;;;;;0.00;0.00;;;3.00;99.90;;;;;;5007823;28;19911;-86
2021/01/07 12:37:19;;;;;;;0.00;0.00;;;3.00;99.90;;;;;;5007674;28;20050;-89
2021/01/07 12:40:16;;;;;;;0.00;0.00;;;3.00;99.90;;;;;;5024487;28;20049;-86
2021/01/07 12:42:44;;;;;;;0.00;0.00;;;3.10;99.90;;;;;;5007231;28;20070;-87
2021/01/07 12:45:13;;;;;;;1.38;0.32;;;3.10;99.90;;;;;;5024193;28;20184;-87
2021/01/07 12:47:40;;;;;;;0.00;0.00;;;3.10;99.90;;;;;;5024512;28;20132;-89
2021/01/07 12:50:07;;;;;;;0.00;0.00;;;3.10;99.90;;;;;;5007642;28;20352;-88
2021/01/07 12:52:34;;;;;;;0.00;0.00;;;3.10;99.90;;;;;;5024244;28;20038;-87
2021/01/07 12:55:01;;;;;;;0.00;0.00;;;3.10;99.90;;;;;;5025320;28;20101;-87
2021/01/07 12:57:35;;;;;;;0.00;0.00;;;3.00;99.90;;;;;;5024385;28;20084;-87
2021/01/07 13:00:11;;;;;;;0.25;0.25;;;3.10;99.90;;;;;;5008459;28;20050;-90
2021/01/07 13:02:58;;;;;;;0.00;0.00;;;3.10;99.90;;;;;;5027954;28;20042;-87
2021/01/07 13:05:31;;;;;;;0.00;0.00;;;3.10;99.90;;;;;;5011017;28;20037;-90
2021/01/07 13:08:00;;;;;;;0.00;0.00;;;3.10;99.90;;;;;;5028078;28;20040;-87